Terminal Aerodrome Forecast
Issued by NWS

Home | Current Version | Previous Version | Graphics & Text | Print | Product List | Glossary On
Versions: 1 2 3 4 5 6 7 8 9 10 11 12 13 14 15 16 17 18
000
FTUS41 KCLE 241120
TAFFDY
TAF
KFDY 241120Z 2412/2512 14006KT P6SM SCT120 BKN250
     FM241400 18010KT P6SM BKN050
     FM241600 18012KT P6SM OVC050
     FM241800 20012KT P6SM VCSH OVC050
      TEMPO 2420/2424 4SM TSRA OVC025CB
     FM250000 20008KT 5SM -SHRA BR OVC035
     FM250800 23006KT 3SM BR OVC035=

USA.gov is the U.S. government's official web portal to all federal, state and local government web resources and services.